createdAt,value
2023-03-29T00:01:11.658Z,0.58
2023-03-29T00:04:02.853Z,0.56
2023-03-29T00:06:33.425Z,0.61
2023-03-29T00:09:06.057Z,0.63
2023-03-29T00:11:34.644Z,0.70
2023-03-29T00:14:03.484Z,0.76
2023-03-29T00:16:32.381Z,0.83
2023-03-29T00:19:01.278Z,0.86
2023-03-29T00:21:29.840Z,0.83
2023-03-29T00:23:59.499Z,0.78
2023-03-29T00:26:28.646Z,0.74
2023-03-29T00:28:57.128Z,0.73
2023-03-29T00:31:27.039Z,0.72
2023-03-29T00:33:56.071Z,0.71
2023-03-29T00:36:24.838Z,0.71
2023-03-29T00:38:53.901Z,0.70
2023-03-29T00:41:22.928Z,0.67
2023-03-29T00:44:00.767Z,0.64
2023-03-29T00:46:32.419Z,0.60
2023-03-29T00:49:09.716Z,0.59
2023-03-29T00:51:41.617Z,0.56
2023-03-29T00:54:16.809Z,0.54
2023-03-29T00:56:50.225Z,0.53
2023-03-29T00:59:24.835Z,0.54
2023-03-29T01:02:14.875Z,0.57
2023-03-29T01:04:54.061Z,0.60
2023-03-29T01:07:38.871Z,0.60
2023-03-29T01:10:12.590Z,0.61
2023-03-29T01:12:46.945Z,0.57
2023-03-29T01:15:20.558Z,0.53
2023-03-29T01:17:52.032Z,0.50
2023-03-29T01:20:39.212Z,0.47
2023-03-29T01:23:31.138Z,0.45
2023-03-29T01:25:59.859Z,0.41
2023-03-29T01:28:36.192Z,0.39
2023-03-29T01:31:11.152Z,0.31
2023-03-29T01:33:49.364Z,0.25
2023-03-29T01:36:52.107Z,0.22
2023-03-29T01:39:22.335Z,0.23
2023-03-29T01:42:18.721Z,0.25
2023-03-29T01:44:57.651Z,0.25
2023-03-29T01:47:44.789Z,0.29
2023-03-29T01:50:28.672Z,0.34
2023-03-29T01:53:03.330Z,0.42
2023-03-29T01:55:36.536Z,0.46
2023-03-29T01:58:09.163Z,0.49
2023-03-29T02:00:40.540Z,0.53
2023-03-29T02:03:10.948Z,0.55
2023-03-29T02:05:40.150Z,0.54
2023-03-29T02:08:11.525Z,0.51
2023-03-29T02:10:40.882Z,0.50
2023-03-29T02:13:09.630Z,0.50
2023-03-29T02:15:39.228Z,0.49
2023-03-29T02:18:08.278Z,0.47
2023-03-29T02:20:41.212Z,0.45
2023-03-29T02:23:25.008Z,0.45
2023-03-29T02:25:57.479Z,0.47
2023-03-29T02:28:29.755Z,0.48
2023-03-29T02:31:15.163Z,0.50
2023-03-29T02:34:37.942Z,0.53
2023-03-29T02:37:16.125Z,0.54
2023-03-29T02:39:48.026Z,0.57
2023-03-29T02:42:20.772Z,0.56
2023-03-29T02:44:52.420Z,0.56
2023-03-29T02:47:32.118Z,0.58
2023-03-29T02:50:01.549Z,0.60
2023-03-29T02:52:36.412Z,0.65
2023-03-29T02:55:08.560Z,0.75
2023-03-29T02:57:40.131Z,0.84
2023-03-29T03:00:10.816Z,0.93
2023-03-29T03:02:39.835Z,0.97
2023-03-29T03:05:09.782Z,1.01
2023-03-29T03:07:40.811Z,1.03
2023-03-29T03:10:10.744Z,1.03
2023-03-29T03:12:39.703Z,1.02
2023-03-29T03:15:09.096Z,0.99
2023-03-29T03:17:40.568Z,0.96
2023-03-29T03:20:13.428Z,0.93
2023-03-29T03:22:49.432Z,0.89
2023-03-29T03:25:21.353Z,0.85
2023-03-29T03:27:52.435Z,0.81
2023-03-29T03:30:22.791Z,0.78
2023-03-29T03:33:11.928Z,0.77
2023-03-29T03:36:06.711Z,0.72
2023-03-29T03:38:40.622Z,0.71
2023-03-29T03:41:09.360Z,0.69
2023-03-29T03:43:38.323Z,0.66
2023-03-29T03:46:09.223Z,0.63
2023-03-29T03:48:37.914Z,0.64
2023-03-29T03:51:10.960Z,0.65
2023-03-29T03:53:41.865Z,0.67
2023-03-29T03:56:17.385Z,0.71
2023-03-29T03:59:00.200Z,0.76
2023-03-29T04:01:29.652Z,0.82
2023-03-29T04:04:04.812Z,0.85
2023-03-29T04:06:34.526Z,0.88
2023-03-29T04:09:23.558Z,0.87
2023-03-29T04:12:02.997Z,0.84
2023-03-29T04:14:32.558Z,0.82
2023-03-29T04:17:16.682Z,0.81
2023-03-29T04:19:50.056Z,0.76
2023-03-29T04:22:20.348Z,0.72
2023-03-29T04:24:50.032Z,0.73
2023-03-29T04:27:38.146Z,0.74
2023-03-29T04:30:13.304Z,0.76
2023-03-29T04:33:02.072Z,0.77
2023-03-29T04:35:30.934Z,0.78
2023-03-29T04:37:59.571Z,0.78
2023-03-29T04:40:29.616Z,0.80
2023-03-29T04:43:18.496Z,0.82
2023-03-29T04:45:58.651Z,0.82
2023-03-29T04:48:56.229Z,0.84
2023-03-29T04:51:33.725Z,0.87
2023-03-29T04:54:02.470Z,0.91
2023-03-29T04:56:32.251Z,0.96
2023-03-29T04:59:24.641Z,1.02
2023-03-29T05:01:54.829Z,1.06
2023-03-29T05:04:24.943Z,1.11
2023-03-29T05:07:04.818Z,1.15
2023-03-29T05:09:35.384Z,1.20
2023-03-29T05:12:07.118Z,1.27
2023-03-29T05:14:46.281Z,1.33
2023-03-29T05:17:15.692Z,1.40
2023-03-29T05:19:44.259Z,1.46
2023-03-29T05:22:12.825Z,1.53
2023-03-29T05:24:42.737Z,1.62
2023-03-29T05:27:18.407Z,1.72
2023-03-29T05:29:58.963Z,1.81
2023-03-29T05:33:05.864Z,1.95
2023-03-29T05:35:36.601Z,2.08
2023-03-29T05:38:07.243Z,2.22
2023-03-29T05:40:36.376Z,2.36
2023-03-29T05:43:22.496Z,2.55
2023-03-29T05:45:54.382Z,2.74
2023-03-29T05:48:24.576Z,2.94
2023-03-29T05:50:54.776Z,3.09
2023-03-29T05:53:24.295Z,3.27
2023-03-29T05:55:53.928Z,3.45
2023-03-29T05:58:26.897Z,3.62
2023-03-29T06:00:56.231Z,3.82
2023-03-29T06:03:44.169Z,4.16
2023-03-29T06:06:16.770Z,4.63
2023-03-29T06:08:46.744Z,4.95
2023-03-29T06:11:35.805Z,5.26
2023-03-29T06:14:16.371Z,5.85
2023-03-29T06:16:50.575Z,6.20
2023-03-29T06:19:19.973Z,6.38
2023-03-29T06:21:48.816Z,6.61
2023-03-29T06:24:21.658Z,7.07
2023-03-29T06:26:56.644Z,7.62
2023-03-29T06:29:26.011Z,8.52
2023-03-29T06:31:55.274Z,9.53
2023-03-29T06:34:43.353Z,10.22
2023-03-29T06:37:32.880Z,10.54
2023-03-29T06:40:34.600Z,11.14
2023-03-29T06:43:03.141Z,12.44
2023-03-29T06:45:47.751Z,13.12
2023-03-29T06:48:23.187Z,13.46
2023-03-29T06:50:52.992Z,13.34
2023-03-29T06:53:24.970Z,13.42
2023-03-29T06:55:57.693Z,13.42
2023-03-29T06:58:41.392Z,12.87
2023-03-29T07:01:22.388Z,12.64
2023-03-29T07:03:57.623Z,12.56
2023-03-29T07:06:32.070Z,12.75
2023-03-29T07:09:01.933Z,12.97
2023-03-29T07:11:54.003Z,13.45
2023-03-29T07:14:30.277Z,14.40
2023-03-29T07:16:59.625Z,14.87
2023-03-29T07:19:34.727Z,14.46
2023-03-29T07:22:36.452Z,13.62
2023-03-29T07:25:06.167Z,13.13
2023-03-29T07:27:36.662Z,12.87
2023-03-29T07:30:11.350Z,13.09
2023-03-29T07:32:44.720Z,13.60
2023-03-29T07:35:34.243Z,14.03
2023-03-29T07:38:04.241Z,14.35
2023-03-29T07:40:34.754Z,14.79
2023-03-29T07:43:22.645Z,15.27
2023-03-29T07:45:53.370Z,15.08
2023-03-29T07:48:22.527Z,14.80
2023-03-29T07:50:59.158Z,14.66
2023-03-29T07:53:32.626Z,14.43
2023-03-29T07:56:05.131Z,13.96
2023-03-29T07:58:53.441Z,13.50
2023-03-29T08:01:23.548Z,13.46
2023-03-29T08:04:14.029Z,13.56
2023-03-29T08:07:01.833Z,13.93
2023-03-29T08:09:54.132Z,14.19
2023-03-29T08:12:27.148Z,14.28
2023-03-29T08:14:57.849Z,14.09
2023-03-29T08:17:33.755Z,13.78
2023-03-29T08:20:04.200Z,13.45
2023-03-29T08:22:33.447Z,13.44
2023-03-29T08:25:20.998Z,13.46
2023-03-29T08:27:51.915Z,13.26
2023-03-29T08:30:30.396Z,12.99
2023-03-29T08:32:59.436Z,12.77
2023-03-29T08:35:28.064Z,12.67
2023-03-29T08:38:17.533Z,12.62
2023-03-29T08:40:49.087Z,12.47
2023-03-29T08:43:58.372Z,12.35
2023-03-29T08:46:56.026Z,12.22
2023-03-29T08:49:31.177Z,12.03
2023-03-29T08:52:05.969Z,11.89
2023-03-29T08:54:49.107Z,11.86
2023-03-29T08:57:29.341Z,11.88
2023-03-29T09:00:32.887Z,11.91
2023-03-29T09:03:22.576Z,11.88
2023-03-29T09:06:08.829Z,11.86
2023-03-29T09:08:46.984Z,11.71
2023-03-29T09:11:33.409Z,11.56
2023-03-29T09:14:11.225Z,11.48
2023-03-29T09:16:43.638Z,11.46
2023-03-29T09:19:27.961Z,11.45
2023-03-29T09:22:16.383Z,11.44
2023-03-29T09:25:00.912Z,11.38
2023-03-29T09:27:39.538Z,11.20
2023-03-29T09:30:28.861Z,11.07
2023-03-29T09:33:15.834Z,11.00
2023-03-29T09:36:18.892Z,11.02
2023-03-29T09:42:08.399Z,11.11
2023-03-29T09:44:42.586Z,11.03
2023-03-29T09:47:17.642Z,10.90
2023-03-29T09:49:49.740Z,10.84
2023-03-29T09:52:21.217Z,10.82
2023-03-29T09:54:59.783Z,10.88
2023-03-29T09:57:54.283Z,10.98
2023-03-29T10:00:23.349Z,10.99
2023-03-29T10:02:54.060Z,11.04
2023-03-29T10:05:30.367Z,11.21
2023-03-29T10:08:01.745Z,11.40
2023-03-29T10:10:34.268Z,11.55
2023-03-29T10:13:11.780Z,11.65
2023-03-29T10:15:40.621Z,11.68
2023-03-29T10:18:14.088Z,11.70
2023-03-29T10:20:43.154Z,11.65
2023-03-29T10:23:18.804Z,11.62
2023-03-29T10:25:47.875Z,11.65
2023-03-29T10:28:21.591Z,11.74
2023-03-29T10:30:56.690Z,11.85
2023-03-29T10:33:31.640Z,11.97
2023-03-29T10:36:03.257Z,12.06
2023-03-29T10:38:32.428Z,12.05
2023-03-29T10:41:08.424Z,11.89
2023-03-29T10:43:44.827Z,11.67
2023-03-29T10:46:20.173Z,11.52
2023-03-29T10:48:51.619Z,11.36
2023-03-29T10:51:21.991Z,11.22
2023-03-29T10:53:51.071Z,11.15
2023-03-29T10:56:23.456Z,11.21
2023-03-29T10:59:04.014Z,11.23
2023-03-29T11:01:39.182Z,11.28
2023-03-29T11:04:30.862Z,11.27
2023-03-29T11:07:32.128Z,11.27
2023-03-29T11:10:10.252Z,11.27
2023-03-29T11:12:52.558Z,11.16
2023-03-29T11:15:58.238Z,11.06
2023-03-29T11:19:02.421Z,11.06
2023-03-29T11:21:50.382Z,11.03
2023-03-29T11:24:19.150Z,10.96
2023-03-29T11:27:06.856Z,10.93
2023-03-29T11:30:13.661Z,10.93
2023-03-29T11:32:51.195Z,10.90
2023-03-29T11:35:45.896Z,10.94
2023-03-29T11:38:33.172Z,11.02
2023-03-29T11:41:15.496Z,11.07
2023-03-29T11:43:55.154Z,11.00
2023-03-29T11:46:27.652Z,10.92
2023-03-29T11:49:21.671Z,10.84
2023-03-29T11:52:06.489Z,10.73
2023-03-29T11:54:59.166Z,10.67
2023-03-29T11:57:54.712Z,10.62
2023-03-29T12:00:33.129Z,10.56
2023-03-29T12:03:23.203Z,10.47
2023-03-29T12:06:18.421Z,10.38
2023-03-29T12:09:03.482Z,10.36
2023-03-29T12:11:41.008Z,10.32
2023-03-29T12:14:22.480Z,10.31
2023-03-29T12:17:05.674Z,10.29
2023-03-29T12:19:55.877Z,10.20
2023-03-29T12:22:24.759Z,10.12
2023-03-29T12:24:58.492Z,10.08
2023-03-29T12:27:59.980Z,10.15
2023-03-29T12:30:55.258Z,10.27
2023-03-29T12:33:41.167Z,10.43
2023-03-29T12:36:42.091Z,10.58
2023-03-29T12:39:51.908Z,10.79
2023-03-29T12:43:13.398Z,11.01
2023-03-29T12:46:26.057Z,11.16
2023-03-29T12:49:01.734Z,11.23
2023-03-29T12:51:33.756Z,11.29
2023-03-29T12:54:22.301Z,11.38
2023-03-29T12:56:54.683Z,11.45
2023-03-29T12:59:23.255Z,11.52
2023-03-29T13:02:10.986Z,11.60
2023-03-29T13:04:43.366Z,11.62
2023-03-29T13:07:17.761Z,11.65
2023-03-29T13:09:53.058Z,11.69
2023-03-29T13:12:27.520Z,11.66
2023-03-29T13:15:21.678Z,11.60
2023-03-29T13:17:59.667Z,11.49
2023-03-29T13:20:37.999Z,11.35
2023-03-29T13:23:09.655Z,11.24
2023-03-29T13:26:00.545Z,11.09
2023-03-29T13:28:29.618Z,10.93
2023-03-29T13:31:23.892Z,10.86
2023-03-29T13:34:00.246Z,10.79
2023-03-29T13:36:33.104Z,10.76
2023-03-29T13:39:08.859Z,10.78
2023-03-29T13:41:41.003Z,10.78
2023-03-29T13:44:43.975Z,10.77
2023-03-29T13:47:34.343Z,10.86
2023-03-29T13:50:15.123Z,10.98
2023-03-29T13:52:54.867Z,11.06
2023-03-29T13:55:33.602Z,11.05
2023-03-29T13:58:13.645Z,11.01
2023-03-29T14:00:50.010Z,10.92
2023-03-29T14:03:26.628Z,10.87
2023-03-29T14:06:02.141Z,10.81
2023-03-29T14:08:35.992Z,10.80
2023-03-29T14:11:07.627Z,10.81
2023-03-29T14:13:37.739Z,10.81
2023-03-29T14:16:11.314Z,10.75
2023-03-29T14:18:42.435Z,10.63
2023-03-29T14:21:14.330Z,10.53
2023-03-29T14:23:46.916Z,10.48
2023-03-29T14:26:22.337Z,10.43
2023-03-29T14:28:53.602Z,10.40
2023-03-29T14:31:42.635Z,10.39
2023-03-29T14:34:16.905Z,10.35
2023-03-29T14:36:49.528Z,10.28
2023-03-29T14:39:21.712Z,10.27
2023-03-29T14:41:58.150Z,10.26
2023-03-29T14:44:32.339Z,10.22
2023-03-29T14:47:03.619Z,10.20
2023-03-29T14:49:32.708Z,10.17
2023-03-29T14:52:01.312Z,10.12
2023-03-29T14:54:33.931Z,10.09
2023-03-29T14:57:07.528Z,10.11
2023-03-29T14:59:43.143Z,10.15
2023-03-29T15:02:29.947Z,10.28
2023-03-29T15:05:03.746Z,10.44
2023-03-29T15:07:34.924Z,10.53
2023-03-29T15:10:06.837Z,10.48
2023-03-29T15:12:38.241Z,10.43
2023-03-29T15:15:12.473Z,10.38
2023-03-29T15:17:50.262Z,10.30
2023-03-29T15:20:27.920Z,10.16
2023-03-29T15:23:01.172Z,10.04
2023-03-29T15:25:36.714Z,9.91
2023-03-29T15:28:05.500Z,9.80
2023-03-29T15:30:46.252Z,9.70
2023-03-29T15:33:23.318Z,9.59
2023-03-29T15:35:54.055Z,9.48
2023-03-29T15:38:30.203Z,9.40
2023-03-29T15:41:08.858Z,9.34
2023-03-29T15:43:39.077Z,9.30
2023-03-29T15:46:08.430Z,9.22
2023-03-29T15:48:37.937Z,9.11
2023-03-29T15:51:07.810Z,9.07
2023-03-29T15:53:36.676Z,9.01
2023-03-29T15:56:08.061Z,8.97
2023-03-29T15:58:38.230Z,8.92
2023-03-29T16:01:33.885Z,8.85
2023-03-29T16:04:12.472Z,8.79
2023-03-29T16:06:41.841Z,8.75
2023-03-29T16:09:12.224Z,8.72
2023-03-29T16:11:43.070Z,8.69
2023-03-29T16:14:27.582Z,8.69
2023-03-29T16:17:01.481Z,8.67
2023-03-29T16:19:33.245Z,8.64
2023-03-29T16:22:05.403Z,8.59
2023-03-29T16:24:35.898Z,8.55
2023-03-29T16:27:04.668Z,8.52
2023-03-29T16:29:34.893Z,8.50
2023-03-29T16:32:06.603Z,8.46
2023-03-29T16:34:36.444Z,8.45
2023-03-29T16:37:05.249Z,8.45
2023-03-29T16:39:33.705Z,8.42
2023-03-29T16:42:02.909Z,8.40
2023-03-29T16:44:31.653Z,8.37
2023-03-29T16:47:00.173Z,8.35
2023-03-29T16:49:29.522Z,8.33
2023-03-29T16:52:00.531Z,8.29
2023-03-29T16:54:29.907Z,8.27
2023-03-29T16:56:59.038Z,8.24
2023-03-29T16:59:28.281Z,8.23
2023-03-29T17:01:56.949Z,8.21
2023-03-29T17:04:39.457Z,8.18
2023-03-29T17:07:28.482Z,8.16
2023-03-29T17:10:21.991Z,8.13
2023-03-29T17:13:09.972Z,8.07
2023-03-29T17:16:01.882Z,8.03
2023-03-29T17:18:53.423Z,7.99
2023-03-29T17:21:45.610Z,7.97
2023-03-29T17:24:38.521Z,7.93
2023-03-29T17:27:24.607Z,7.89
2023-03-29T17:30:27.893Z,7.87
2023-03-29T17:33:19.104Z,7.82
2023-03-29T17:36:11.423Z,7.79
2023-03-29T17:39:03.476Z,7.76
2023-03-29T17:41:52.608Z,7.72
2023-03-29T17:44:28.646Z,7.70
2023-03-29T17:46:58.857Z,7.67
2023-03-29T17:49:27.774Z,7.68
2023-03-29T17:51:57.981Z,7.68
2023-03-29T17:54:27.304Z,7.68
2023-03-29T17:56:55.815Z,7.71
2023-03-29T17:59:25.160Z,7.71
2023-03-29T18:01:54.017Z,7.73
2023-03-29T18:04:22.531Z,7.74
2023-03-29T18:06:51.449Z,7.73
2023-03-29T18:09:20.154Z,7.74
2023-03-29T18:11:48.538Z,7.73
2023-03-29T18:14:18.040Z,7.73
2023-03-29T18:16:47.381Z,7.73
2023-03-29T18:19:16.161Z,7.71
2023-03-29T18:21:45.137Z,7.69
2023-03-29T18:24:13.676Z,7.66
2023-03-29T18:26:42.258Z,7.63
2023-03-29T18:29:11.786Z,7.62
2023-03-29T18:31:40.789Z,7.61
2023-03-29T18:34:09.762Z,7.61
2023-03-29T18:36:39.070Z,7.61
2023-03-29T18:39:08.011Z,7.60
2023-03-29T18:41:37.614Z,7.63
2023-03-29T18:44:08.112Z,7.63
2023-03-29T18:46:37.165Z,7.65
2023-03-29T18:49:07.855Z,7.65
2023-03-29T18:51:37.317Z,7.63
2023-03-29T18:54:06.787Z,7.61
2023-03-29T18:56:36.030Z,7.61
2023-03-29T18:59:06.877Z,7.60
2023-03-29T19:01:36.214Z,7.59
2023-03-29T19:04:04.869Z,7.59
2023-03-29T19:06:34.016Z,7.60
2023-03-29T19:09:05.437Z,7.61
2023-03-29T19:11:36.255Z,7.62
2023-03-29T19:14:08.666Z,7.65
2023-03-29T19:16:38.497Z,7.66
2023-03-29T19:19:09.409Z,7.66
2023-03-29T19:21:39.036Z,7.66
2023-03-29T19:24:08.129Z,7.66
2023-03-29T19:26:36.889Z,7.65
2023-03-29T19:29:06.679Z,7.64
2023-03-29T19:31:38.209Z,7.61
2023-03-29T19:34:10.075Z,7.59
2023-03-29T19:36:38.691Z,7.58
2023-03-29T19:39:07.636Z,7.58
2023-03-29T19:41:36.974Z,7.58
2023-03-29T19:44:06.758Z,7.60
2023-03-29T19:46:35.274Z,7.64
2023-03-29T19:49:06.108Z,7.65
2023-03-29T19:51:34.907Z,7.64
2023-03-29T19:54:03.464Z,7.62
2023-03-29T19:56:33.558Z,7.60
2023-03-29T19:59:02.021Z,7.58
2023-03-29T20:01:32.613Z,7.56
2023-03-29T20:04:03.167Z,7.56
2023-03-29T20:06:31.700Z,7.53
2023-03-29T20:09:00.246Z,7.52
2023-03-29T20:11:29.518Z,7.52
2023-03-29T20:13:58.349Z,7.52
2023-03-29T20:16:27.366Z,7.56
2023-03-29T20:18:56.700Z,7.58
2023-03-29T20:21:25.539Z,7.60
2023-03-29T20:23:54.029Z,7.60
2023-03-29T20:26:23.468Z,7.61
2023-03-29T20:28:52.909Z,7.61
2023-03-29T20:31:21.403Z,7.62
2023-03-29T20:33:50.664Z,7.63
2023-03-29T20:36:23.168Z,7.64
2023-03-29T20:38:52.947Z,7.66
2023-03-29T20:41:23.127Z,7.68
2023-03-29T20:43:58.792Z,7.70
2023-03-29T20:46:34.413Z,7.72
2023-03-29T20:49:05.001Z,7.72
2023-03-29T20:51:33.818Z,7.72
2023-03-29T20:54:05.003Z,7.72
2023-03-29T20:56:35.670Z,7.72
2023-03-29T20:59:04.733Z,7.71
2023-03-29T21:01:35.245Z,7.72
2023-03-29T21:04:03.883Z,7.71
2023-03-29T21:06:33.804Z,7.70
2023-03-29T21:09:02.503Z,7.69
2023-03-29T21:11:31.170Z,7.69
2023-03-29T21:13:59.829Z,7.69
2023-03-29T21:16:29.335Z,7.69
2023-03-29T21:18:58.056Z,7.69
2023-03-29T21:21:26.687Z,7.70
2023-03-29T21:23:55.044Z,7.71
2023-03-29T21:26:24.047Z,7.72
2023-03-29T21:28:52.723Z,7.71
2023-03-29T21:31:21.478Z,7.72
2023-03-29T21:33:50.391Z,7.74
2023-03-29T21:36:19.857Z,7.76
2023-03-29T21:38:48.372Z,7.76
2023-03-29T21:41:17.579Z,7.77
2023-03-29T21:43:46.059Z,7.79
2023-03-29T21:46:14.649Z,7.80
2023-03-29T21:48:43.617Z,7.81
2023-03-29T21:51:12.344Z,7.82
2023-03-29T21:53:40.629Z,7.83
2023-03-29T21:56:09.154Z,7.85
2023-03-29T21:58:38.621Z,7.86
2023-03-29T22:01:10.290Z,7.87
2023-03-29T22:03:39.164Z,7.87
2023-03-29T22:06:09.823Z,7.88
2023-03-29T22:08:41.451Z,7.88
2023-03-29T22:11:11.738Z,7.88
2023-03-29T22:13:40.605Z,7.89
2023-03-29T22:16:10.373Z,7.90
2023-03-29T22:18:47.113Z,7.93
2023-03-29T22:21:18.058Z,7.96
2023-03-29T22:23:47.797Z,7.99
2023-03-29T22:26:17.290Z,8.04
2023-03-29T22:28:46.192Z,8.07
2023-03-29T22:31:16.178Z,8.13
2023-03-29T22:33:44.659Z,8.17
2023-03-29T22:36:16.695Z,8.20
2023-03-29T22:38:46.414Z,8.25
2023-03-29T22:41:15.986Z,8.27
2023-03-29T22:43:45.171Z,8.27
2023-03-29T22:46:14.297Z,8.26
2023-03-29T22:48:42.638Z,8.23
2023-03-29T22:51:12.247Z,8.20
2023-03-29T22:53:41.681Z,8.17
2023-03-29T22:56:10.022Z,8.13
2023-03-29T22:58:38.642Z,8.09
2023-03-29T23:01:08.191Z,8.06
2023-03-29T23:03:37.107Z,8.04
2023-03-29T23:06:06.037Z,8.02
2023-03-29T23:08:35.392Z,8.00
2023-03-29T23:11:04.836Z,7.98
2023-03-29T23:13:34.044Z,7.97
2023-03-29T23:16:03.905Z,7.95
2023-03-29T23:18:35.297Z,7.95
2023-03-29T23:21:06.342Z,7.93
2023-03-29T23:23:36.325Z,7.93
2023-03-29T23:26:05.144Z,7.93
2023-03-29T23:28:34.884Z,7.92
2023-03-29T23:31:10.459Z,7.92
2023-03-29T23:33:41.404Z,7.92
2023-03-29T23:36:14.468Z,7.92
2023-03-29T23:38:44.301Z,7.94
2023-03-29T23:41:13.209Z,7.94
2023-03-29T23:43:43.464Z,7.93
2023-03-29T23:46:13.497Z,7.92
2023-03-29T23:48:49.530Z,7.91
2023-03-29T23:51:19.090Z,7.91
2023-03-29T23:53:47.605Z,7.91
2023-03-29T23:56:16.940Z,7.92
2023-03-29T23:58:45.876Z,7.92
